Time;durP1;ratioP1;P1;durP2;ratioP2;P2;SDS_P1;SDS_P2;PMS_P1;PMS_P2;Temp;Humidity;BMP_temperature;BMP_pressure;BME280_temperature;BME280_humidity;BME280_pressure;Samples;Min_cycle;Max_cycle;Signal;HPM_P1;HPM_P2
2021/11/25 00:00:12;;;;;;;7.00;3.95;;;;;;;11.67;47.02;100940.22;4217857;28;20437;-62
2021/11/25 00:02:15;;;;;;;7.40;3.83;;;;;;;11.61;46.88;100937.81;4206386;28;20070;-61
2021/11/25 00:04:18;;;;;;;7.97;4.22;;;;;;;11.62;46.83;100939.53;4212539;28;20383;-63
2021/11/25 00:06:21;;;;;;;6.90;4.00;;;;;;;11.61;46.95;100946.56;4212391;28;20063;-61
2021/11/25 00:08:23;;;;;;;6.25;3.65;;;;;;;11.64;46.87;100951.72;4207082;28;20111;-61
2021/11/25 00:10:25;;;;;;;6.72;4.15;;;;;;;11.60;46.77;100934.28;4205128;28;20270;-61
2021/11/25 00:12:27;;;;;;;6.70;4.03;;;;;;;11.63;46.95;100947.38;4223104;28;20082;-62
2021/11/25 00:14:30;;;;;;;6.95;3.90;;;;;;;11.59;46.99;100940.50;4204816;28;20111;-60
2021/11/25 00:16:32;;;;;;;;;;;;;;;11.61;47.11;100946.56;4213955;28;20359;-61
2021/11/25 00:18:34;;;;;;;7.13;3.97;;;;;;;11.60;46.93;100950.09;4206136;28;19940;-61
2021/11/25 00:20:36;;;;;;;;;;;;;;;11.60;47.30;100946.63;4210634;28;20112;-62
2021/11/25 00:22:39;;;;;;;6.97;3.78;;;;;;;11.59;47.20;100940.50;4222780;28;20217;-61
2021/11/25 00:24:41;;;;;;;6.25;3.80;;;;;;;11.57;46.78;100942.31;4218986;28;20119;-62
2021/11/25 00:26:43;;;;;;;;;;;;;;;11.57;47.24;100934.44;4214389;28;20048;-61
2021/11/25 00:28:46;;;;;;;6.68;3.67;;;;;;;11.55;47.09;100938.03;4222919;28;19935;-61
2021/11/25 00:30:48;;;;;;;6.18;3.50;;;;;;;11.56;47.02;100937.97;4210978;28;20071;-61
2021/11/25 00:32:50;;;;;;;6.43;3.58;;;;;;;11.57;47.22;100925.66;4221770;28;20094;-61
2021/11/25 00:34:52;;;;;;;6.18;3.70;;;;;;;11.46;47.17;100915.53;4220278;28;20280;-61
2021/11/25 00:36:54;;;;;;;6.43;3.72;;;;;;;11.52;47.11;100925.84;4212564;28;20318;-61
2021/11/25 00:38:56;;;;;;;;;;;;;;;11.55;47.05;100916.97;4222993;28;20427;-61
2021/11/25 00:40:58;;;;;;;7.35;4.10;;;;;;;11.52;46.98;100917.94;4212052;28;19917;-61
2021/11/25 00:43:01;;;;;;;7.20;4.30;;;;;;;11.55;46.95;100916.97;4220472;28;20227;-61
2021/11/25 00:45:03;;;;;;;;;;;;;;;11.54;47.23;100920.50;4221488;28;20095;-61
2021/11/25 00:47:05;;;;;;;6.95;3.83;;;;;;;11.42;47.01;100896.34;4210945;28;19971;-61
2021/11/25 00:49:09;;;;;;;7.60;4.03;;;;;;;11.43;47.11;100902.47;4222274;28;20060;-61
2021/11/25 00:51:12;;;;;;;5.90;3.53;;;;;;;11.42;47.18;100898.09;4212901;28;20048;-61
2021/11/25 00:53:15;;;;;;;7.05;4.10;;;;;;;11.46;46.93;100903.22;4219208;28;20063;-61
2021/11/25 00:55:19;;;;;;;5.85;3.58;;;;;;;11.41;47.19;100899.88;4220775;28;20040;-62
2021/11/25 00:57:21;;;;;;;6.70;3.95;;;;;;;11.50;46.95;100912.69;4210421;28;20052;-61
2021/11/25 00:59:23;;;;;;;;;;;;;;;11.50;47.10;100909.22;4222345;28;20107;-61
2021/11/25 01:01:25;;;;;;;6.93;4.30;;;;;;;11.40;46.89;100890.25;4213732;28;19991;-61
2021/11/25 01:03:28;;;;;;;6.30;3.88;;;;;;;11.45;47.17;100901.47;4217891;28;20067;-61
2021/11/25 01:05:30;;;;;;;6.45;4.10;;;;;;;11.43;47.20;100891.91;4220696;28;20349;-61
2021/11/25 01:07:33;;;;;;;6.63;3.70;;;;;;;11.47;47.01;100911.94;4210627;28;20324;-60
2021/11/25 01:09:35;;;;;;;5.68;3.42;;;;;;;11.48;47.39;100913.69;4222326;28;20313;-60
2021/11/25 01:11:37;;;;;;;;;;;;;;;11.47;47.14;100926.00;4215404;28;20047;-60
2021/11/25 01:13:40;;;;;;;6.88;3.75;;;;;;;11.39;47.27;100909.59;4216389;28;19947;-60
2021/11/25 01:15:42;;;;;;;6.40;3.63;;;;;;;11.45;46.97;100919.91;4221942;28;20100;-60
2021/11/25 01:17:45;;;;;;;6.00;3.78;;;;;;;11.43;47.01;100913.84;4210676;28;20056;-60
2021/11/25 01:19:47;;;;;;;6.57;3.78;;;;;;;11.46;46.94;100918.16;4221923;28;20059;-60
2021/11/25 01:21:50;;;;;;;7.00;3.95;;;;;;;11.45;47.21;100912.00;4220584;28;20152;-60
2021/11/25 01:23:52;;;;;;;6.50;3.97;;;;;;;11.42;47.25;100912.16;4211745;28;20067;-60
2021/11/25 01:25:57;;;;;;;7.63;3.70;;;;;;;11.42;47.25;100912.16;4205399;28;20390;-60
2021/11/25 01:27:59;;;;;;;6.88;3.80;;;;;;;11.44;47.09;100915.56;4216689;28;20048;-60
2021/11/25 01:30:04;;;;;;;6.70;4.20;;;;;;;11.38;47.12;100907.03;4205082;28;20103;-61
2021/11/25 01:32:06;;;;;;;6.70;3.58;;;;;;;11.34;47.10;100907.13;4210190;28;20103;-60
2021/11/25 01:34:09;;;;;;;6.40;3.83;;;;;;;11.43;47.05;100918.25;4212163;28;20401;-61
2021/11/25 01:36:13;;;;;;;7.32;4.30;;;;;;;11.28;46.98;100893.34;4205021;28;20116;-61
2021/11/25 01:38:15;;;;;;;;;;;;;;;11.42;47.36;100916.53;4220214;28;20070;-61
2021/11/25 01:40:18;;;;;;;6.07;3.42;;;;;;;11.40;47.05;100915.72;4204928;28;19947;-61
2021/11/25 01:42:20;;;;;;;8.82;3.65;;;;;;;11.38;46.91;100914.94;4208900;28;20067;-61
2021/11/25 01:44:22;;;;;;;6.72;3.88;;;;;;;11.38;47.18;100914.94;4213037;28;20064;-60
2021/11/25 01:46:24;;;;;;;6.78;3.80;;;;;;;11.37;47.35;100913.22;4204799;28;20048;-61
2021/11/25 01:48:27;;;;;;;7.53;4.25;;;;;;;11.40;47.14;100926.25;4216764;28;20371;-61
2021/11/25 01:50:31;;;;;;;5.82;3.47;;;;;;;11.40;47.18;100923.63;4204912;28;20083;-61
2021/11/25 01:52:33;;;;;;;6.53;3.78;;;;;;;11.32;47.30;100916.00;4207566;28;20064;-60
2021/11/25 01:54:35;;;;;;;;;;;;;;;11.38;47.12;100918.41;4214274;28;20060;-60
2021/11/25 01:56:37;;;;;;;6.97;3.70;;;;;;;11.38;47.04;100917.56;4204556;28;20220;-60
2021/11/25 01:58:39;;;;;;;;;;;;;;;11.37;47.12;100913.22;4216009;28;20064;-60
2021/11/25 02:00:49;;;;;;;5.68;3.33;;;;;;;11.32;47.29;100905.47;4205895;28;19947;-60
2021/11/25 02:02:53;;;;;;;6.18;3.65;;;;;;;11.37;46.98;100918.47;4207299;28;20096;-60
2021/11/25 02:04:55;;;;;;;6.95;3.50;;;;;;;11.35;47.33;100918.53;4213897;28;20104;-60
2021/11/25 02:06:57;;;;;;;;;;;;;;;11.34;47.03;100925.56;4205165;28;20068;-60
2021/11/25 02:09:01;;;;;;;5.85;3.53;;;;;;;11.26;47.05;100909.16;4215102;28;19950;-60
2021/11/25 02:11:03;;;;;;;6.32;3.63;;;;;;;11.31;47.10;100912.53;4205813;28;20044;-61
2021/11/25 02:13:05;;;;;;;7.13;3.53;;;;;;;11.21;47.32;100903.22;4206239;28;20111;-61
2021/11/25 02:15:08;;;;;;;;;;;;;;;11.32;47.18;100916.88;4215441;28;20100;-61
2021/11/25 02:17:10;;;;;;;;;;;;;;;11.31;47.13;100912.53;4205172;28;19983;-60
2021/11/25 02:19:13;;;;;;;6.03;3.53;;;;;;;11.25;47.16;100904.84;4214179;28;19935;-61
2021/11/25 02:21:16;;;;;;;5.88;3.35;;;;;;;11.23;47.17;100898.75;4206919;28;20075;-61
2021/11/25 02:23:19;;;;;;;5.65;3.22;;;;;;;11.26;46.96;100901.28;4205708;28;20045;-61
2021/11/25 02:25:21;;;;;;;6.20;3.58;;;;;;;11.27;47.31;100915.31;4215621;28;20107;-61
2021/11/25 02:27:23;;;;;;;;;;;;;;;11.28;47.22;100903.88;4205147;28;20072;-60
2021/11/25 02:29:26;;;;;;;8.13;3.80;;;;;;;11.16;47.22;100886.72;4213002;28;19939;-60
2021/11/25 02:31:28;;;;;;;6.38;3.50;;;;;;;11.28;47.34;100912.63;4207944;28;20115;-60
2021/11/25 02:33:31;;;;;;;5.93;3.40;;;;;;;11.27;46.94;100902.16;4205685;28;20103;-60
2021/11/25 02:35:36;;;;;;;6.25;3.80;;;;;;;11.22;47.17;100890.94;4215529;28;20070;-60
2021/11/25 02:37:38;;;;;;;6.22;3.38;;;;;;;11.11;47.17;100870.25;4204263;28;20056;-61
2021/11/25 02:39:41;;;;;;;6.43;3.60;;;;;;;11.27;47.07;100894.25;4212191;28;20059;-60
2021/11/25 02:41:43;;;;;;;6.97;3.60;;;;;;;11.21;46.88;100891.84;4208987;28;20111;-61
2021/11/25 02:43:45;;;;;;;6.60;3.38;;;;;;;11.07;47.10;100864.22;4205630;28;20072;-61
2021/11/25 02:45:52;;;;;;;6.13;3.65;;;;;;;11.24;47.17;100896.97;4215443;28;20064;-60
2021/11/25 02:47:54;;;;;;;6.20;3.45;;;;;;;11.24;47.08;100894.34;4204501;28;20116;-61
2021/11/25 02:49:56;;;;;;;5.90;3.67;;;;;;;11.25;47.16;100896.06;4211659;28;20075;-60
2021/11/25 02:51:59;;;;;;;6.55;3.42;;;;;;;11.24;47.21;100889.09;4209170;28;20075;-60
2021/11/25 02:54:02;;;;;;;5.55;3.33;;;;;;;11.13;47.02;100878.94;4205548;28;20213;-60
2021/11/25 02:56:07;;;;;;;6.00;3.40;;;;;;;11.23;47.00;100890.88;4215421;28;20111;-60
2021/11/25 02:58:10;;;;;;;5.93;3.95;;;;;;;11.23;47.04;100895.25;4204349;28;20107;-60
2021/11/25 03:00:42;;;;;;;6.13;3.17;;;;;;;11.23;46.98;100895.25;4210650;28;20067;-60
2021/11/25 03:02:44;;;;;;;5.75;3.35;;;;;;;11.22;47.22;100897.03;4204813;28;20112;-60
2021/11/25 03:04:46;;;;;;;;;;;;;;;11.22;47.27;100904.09;4206214;28;20350;-61
2021/11/25 03:06:48;;;;;;;5.22;3.22;;;;;;;11.19;47.11;100892.75;4215091;28;19939;-60
2021/11/25 03:08:51;;;;;;;5.53;3.40;;;;;;;11.01;47.15;100853.94;4204405;28;20293;-60
2021/11/25 03:11:08;;;;;;;5.60;3.60;;;;;;;11.00;47.22;100857.47;4213563;28;20044;-59
2021/11/25 03:13:13;;;;;;;6.35;3.58;;;;;;;11.15;47.29;100878.00;4204730;28;20104;-60
2021/11/25 03:15:15;;;;;;;5.97;3.75;;;;;;;11.03;47.11;100859.97;4206419;28;20372;-60
2021/11/25 03:17:17;;;;;;;;;;;;;;;11.18;47.24;100888.41;4214088;28;20064;-61
2021/11/25 03:19:19;;;;;;;6.30;3.58;;;;;;;11.17;47.00;100885.81;4204278;28;19923;-62
2021/11/25 03:21:22;;;;;;;5.95;3.40;;;;;;;10.99;47.02;100853.09;4215430;28;20115;-61
2021/11/25 03:23:28;;;;;;;5.93;3.40;;;;;;;11.16;47.16;100882.31;4208785;28;20107;-61
2021/11/25 03:25:32;;;;;;;5.82;3.50;;;;;;;11.17;47.01;100880.56;4208581;28;20064;-61
2021/11/25 03:27:34;;;;;;;6.05;3.50;;;;;;;11.14;47.31;100875.38;4217025;28;20108;-61
2021/11/25 03:29:36;;;;;;;5.65;3.38;;;;;;;11.15;47.15;100879.75;4206895;28;20063;-61
2021/11/25 03:31:38;;;;;;;6.40;3.72;;;;;;;11.10;47.11;100872.00;4216534;28;20047;-62
2021/11/25 03:33:40;;;;;;;;;;;;;;;11.13;47.23;100879.81;4209757;28;20124;-61
2021/11/25 03:35:42;;;;;;;5.53;3.58;;;;;;;11.05;47.38;100870.47;4208281;28;19940;-61
2021/11/25 03:37:45;;;;;;;6.28;3.63;;;;;;;11.13;47.26;100882.44;4217986;28;20105;-62
2021/11/25 03:39:47;;;;;;;;;;;;;;;11.12;47.15;100880.72;4207519;28;20068;-62
2021/11/25 03:41:49;;;;;;;6.03;3.53;;;;;;;11.09;46.95;100883.44;4215355;28;20161;-61
2021/11/25 03:43:52;;;;;;;6.57;3.63;;;;;;;11.07;47.18;100871.25;4210527;28;20071;-61
2021/11/25 03:45:54;;;;;;;6.35;3.47;;;;;;;11.05;47.27;100865.19;4208204;28;20336;-62
2021/11/25 03:47:57;;;;;;;7.55;3.83;;;;;;;11.11;47.12;100876.34;4218127;28;20056;-62
2021/11/25 03:49:59;;;;;;;6.57;3.70;;;;;;;11.10;47.12;100877.28;4206945;28;20068;-61
2021/11/25 03:52:01;;;;;;;;;;;;;;;11.10;47.22;100872.00;4214164;28;20332;-62
2021/11/25 03:54:03;;;;;;;6.28;3.80;;;;;;;11.06;47.19;100867.78;4211755;28;19916;-61
2021/11/25 03:56:05;;;;;;;;;;;;;;;11.09;47.31;100866.81;4208503;28;20183;-61
2021/11/25 03:58:08;;;;;;;7.55;4.00;;;;;;;11.06;47.16;100864.25;4217730;28;19916;-61
2021/11/25 04:00:12;;;;;;;7.25;4.05;;;;;;;11.09;47.35;100862.38;4206696;28;20236;-62
2021/11/25 04:02:15;;;;;;;6.80;4.20;;;;;;;11.04;47.32;100856.44;4212542;28;20074;-61
2021/11/25 04:04:18;;;;;;;8.20;4.25;;;;;;;10.98;47.45;100862.75;4212372;28;20093;-61
2021/11/25 04:06:20;;;;;;;7.90;4.55;;;;;;;11.05;47.44;100866.06;4207612;28;20329;-62
2021/11/25 04:08:23;;;;;;;7.18;4.35;;;;;;;11.00;47.49;100860.09;4219204;28;20111;-62
2021/11/25 04:10:25;;;;;;;;;;;;;;;11.06;47.48;100873.03;4223779;28;20142;-62
2021/11/25 04:12:27;;;;;;;8.25;4.43;;;;;;;10.98;47.28;100860.13;4217575;28;19916;-62
2021/11/25 04:14:29;;;;;;;;;;;;;;;11.06;47.39;100877.41;4216096;28;20093;-62
2021/11/25 04:16:32;;;;;;;7.40;4.60;;;;;;;11.03;47.40;100871.38;4222836;28;19939;-61
2021/11/25 04:18:34;;;;;;;7.55;4.88;;;;;;;11.02;47.51;100863.50;4209913;28;20071;-61
2021/11/25 04:20:36;;;;;;;;;;;;;;;11.04;47.35;100869.59;4223487;28;20107;-62
2021/11/25 04:22:39;;;;;;;8.20;5.20;;;;;;;11.02;47.31;100863.50;4218999;28;19935;-61
2021/11/25 04:24:41;;;;;;;9.55;5.43;;;;;;;10.99;47.31;100856.59;4214441;28;20048;-61
2021/11/25 04:26:43;;;;;;;10.52;5.72;;;;;;;10.95;47.52;100859.41;4222792;28;20283;-61
2021/11/25 04:28:45;;;;;;;;;;;;;;;11.01;47.66;100872.34;4218959;28;20112;-61
2021/11/25 04:30:53;;;;;;;10.00;5.72;;;;;;;11.00;47.49;100879.38;4206593;28;19943;-61
2021/11/25 04:37:31;;;;;;;9.75;5.93;;;;;;;10.98;47.47;100873.28;4207037;28;20048;-62
2021/11/25 04:39:34;;;;;;;10.73;6.85;;;;;;;10.96;47.48;100874.25;4217189;28;20098;-61
2021/11/25 04:41:36;;;;;;;11.15;7.05;;;;;;;10.90;47.57;100869.22;4205898;28;20064;-61
2021/11/25 04:43:38;;;;;;;12.57;7.40;;;;;;;10.96;47.78;100877.75;4212308;28;20063;-61
2021/11/25 04:45:42;;;;;;;11.85;7.47;;;;;;;10.95;47.53;100876.03;4211920;28;20379;-61
2021/11/25 04:47:44;;;;;;;13.65;7.80;;;;;;;10.97;47.48;100881.25;4207232;28;20086;-59
2021/11/25 04:49:46;;;;;;;12.40;7.53;;;;;;;10.86;47.64;100864.06;4219081;28;20068;-61
2021/11/25 04:51:48;;;;;;;13.68;8.10;;;;;;;10.88;47.61;100866.63;4222489;28;20467;-61
2021/11/25 04:53:51;;;;;;;;;;;;;;;10.95;47.77;100888.34;4217227;28;20047;-62
2021/11/25 04:55:53;;;;;;;12.93;7.82;;;;;;;10.86;47.67;100871.09;4215577;28;20160;-59
2021/11/25 04:57:56;;;;;;;13.65;8.13;;;;;;;10.90;47.64;100869.22;4222014;28;20123;-59
2021/11/25 04:59:58;;;;;;;13.82;8.25;;;;;;;10.91;47.75;100870.94;4220375;28;20044;-61
2021/11/25 05:02:00;;;;;;;13.77;8.45;;;;;;;10.84;47.68;100867.66;4205627;28;20265;-60
2021/11/25 05:04:03;;;;;;;13.05;8.68;;;;;;;10.88;47.77;100879.78;4209503;28;21066;-62
2021/11/25 05:06:05;;;;;;;13.85;8.50;;;;;;;10.85;47.66;100875.50;4222204;28;20051;-61
2021/11/25 05:08:07;;;;;;;14.00;8.75;;;;;;;10.83;47.70;100874.69;4222212;28;20103;-61
2021/11/25 05:10:11;;;;;;;15.88;9.18;;;;;;;10.88;47.90;100886.84;4210093;28;20132;-61
2021/11/25 05:12:13;;;;;;;15.43;9.50;;;;;;;10.76;47.72;100862.66;4221936;28;20063;-61
2021/11/25 05:14:16;;;;;;;16.92;9.68;;;;;;;10.73;47.92;100856.63;4218633;28;20079;-62
2021/11/25 05:16:18;;;;;;;15.20;9.15;;;;;;;10.81;47.83;100868.59;4212750;28;20059;-62
2021/11/25 05:18:20;;;;;;;;;;;;;;;10.89;48.02;100878.88;4222605;28;20111;-60
2021/11/25 05:20:22;;;;;;;18.17;9.98;;;;;;;10.88;47.85;100874.53;4210777;28;19988;-59
2021/11/25 05:22:24;;;;;;;18.98;10.00;;;;;;;10.86;47.84;100882.50;4220406;28;20055;-60
2021/11/25 05:24:26;;;;;;;;;;;;;;;10.86;47.81;100874.59;4220600;28;20095;-63
2021/11/25 05:26:29;;;;;;;16.38;9.80;;;;;;;10.78;47.99;100858.22;4211231;28;19987;-59
2021/11/25 05:28:31;;;;;;;17.70;10.18;;;;;;;10.78;48.02;100863.47;4222030;28;20469;-60
2021/11/25 05:30:33;;;;;;;16.08;9.70;;;;;;;10.79;47.86;100864.31;4212177;28;20470;-59
2021/11/25 05:32:35;;;;;;;17.70;10.43;;;;;;;10.82;47.94;100872.97;4218886;28;20394;-60
2021/11/25 05:34:37;;;;;;;16.65;10.25;;;;;;;10.75;47.99;100862.72;4220478;28;20063;-60
2021/11/25 05:36:40;;;;;;;17.73;10.38;;;;;;;10.76;47.69;100864.44;4205757;28;20064;-60
2021/11/25 05:38:42;;;;;;;;;;;;;;;10.84;47.96;100880.81;4205508;28;20072;-59
2021/11/25 05:40:45;;;;;;;19.45;10.32;;;;;;;10.77;47.83;100866.16;4213007;28;19983;-59
2021/11/25 05:42:48;;;;;;;16.50;10.27;;;;;;;10.73;47.92;100864.53;4208906;28;20063;-62
2021/11/25 05:44:50;;;;;;;20.70;11.82;;;;;;;10.71;47.79;100865.44;4205794;28;20337;-62
2021/11/25 05:46:52;;;;;;;18.63;11.07;;;;;;;10.82;47.83;100877.38;4216471;28;20068;-62
2021/11/25 05:48:54;;;;;;;19.45;11.43;;;;;;;10.82;47.87;100877.38;4204937;28;20287;-62
2021/11/25 05:50:56;;;;;;;19.85;11.82;;;;;;;10.73;47.89;100867.16;4211943;28;20051;-60
2021/11/25 05:52:59;;;;;;;;;;;;;;;10.81;48.14;100888.81;4210677;28;20044;-60
2021/11/25 05:55:01;;;;;;;19.88;11.45;;;;;;;10.74;47.95;100882.91;4206313;28;19983;-60
2021/11/25 05:57:04;;;;;;;19.92;11.85;;;;;;;10.79;48.04;100893.25;4215800;28;20060;-60
2021/11/25 05:59:06;;;;;;;20.23;11.52;;;;;;;10.70;47.97;100878.63;4204858;28;20127;-59
2021/11/25 06:01:08;;;;;;;;;;;;;;;10.79;48.01;100909.91;4210804;28;20103;-60
2021/11/25 06:03:11;;;;;;;19.80;11.55;;;;;;;10.72;48.09;100905.75;4211288;28;20256;-60
2021/11/25 06:05:14;;;;;;;;;;;;;;;10.79;47.86;100911.66;4205644;28;20270;-60
2021/11/25 06:07:17;;;;;;;22.90;12.10;;;;;;;10.78;48.17;100909.94;4216293;28;19995;-60
2021/11/25 06:09:19;;;;;;;21.92;12.68;;;;;;;10.72;48.28;100900.50;4204683;28;20060;-60
2021/11/25 06:11:21;;;;;;;21.70;12.00;;;;;;;10.70;47.95;100892.69;4209102;28;20146;-60
2021/11/25 06:13:23;;;;;;;22.73;12.82;;;;;;;10.71;47.92;100901.41;4212081;28;20071;-60
2021/11/25 06:15:25;;;;;;;;;;;;;;;10.76;47.94;100911.78;4205106;28;20067;-59
2021/11/25 06:17:28;;;;;;;24.95;13.15;;;;;;;10.73;48.05;100898.72;4217321;28;19916;-60
2021/11/25 06:19:30;;;;;;;22.05;12.02;;;;;;;10.68;48.08;100898.88;4204417;28;20279;-60
2021/11/25 06:21:32;;;;;;;;;;;;;;;10.74;48.14;100906.59;4209042;28;20066;-60
2021/11/25 06:23:34;;;;;;;21.05;12.40;;;;;;;10.70;48.13;100904.94;4212145;28;20251;-60
2021/11/25 06:25:36;;;;;;;21.48;12.07;;;;;;;10.74;48.04;100916.22;4221459;28;20048;-60
2021/11/25 06:27:39;;;;;;;21.25;12.18;;;;;;;10.68;47.84;100902.38;4209503;28;20108;-60
2021/11/25 06:29:41;;;;;;;23.15;12.38;;;;;;;10.65;48.08;100891.94;4220166;28;20120;-60
2021/11/25 06:31:43;;;;;;;;;;;;;;;10.72;47.98;100903.13;4219316;28;20040;-60
2021/11/25 06:33:45;;;;;;;21.73;13.13;;;;;;;10.70;47.81;100904.94;4211013;28;20247;-60
2021/11/25 06:35:48;;;;;;;22.05;12.48;;;;;;;10.70;47.84;100904.94;4221364;28;20063;-60
2021/11/25 06:37:52;;;;;;;23.63;12.88;;;;;;;10.66;48.10;100898.09;4210952;28;20107;-60
2021/11/25 06:39:55;;;;;;;22.35;12.60;;;;;;;10.65;47.89;100899.00;4218822;28;20068;-61
2021/11/25 06:41:57;;;;;;;21.27;12.95;;;;;;;10.62;47.94;100891.19;4219704;28;20134;-60
2021/11/25 06:43:59;;;;;;;25.75;13.02;;;;;;;10.68;47.97;100904.13;4209866;28;20300;-60
2021/11/25 06:46:02;;;;;;;22.42;12.30;;;;;;;10.60;47.88;100893.88;4221341;28;20064;-60
2021/11/25 06:48:04;;;;;;;23.90;12.95;;;;;;;10.68;48.05;100902.38;4216837;28;20136;-60
2021/11/25 06:50:09;;;;;;;23.33;13.18;;;;;;;10.70;47.89;100897.94;4207798;28;20075;-60
2021/11/25 06:52:11;;;;;;;26.77;14.55;;;;;;;10.67;47.97;100903.28;4205474;28;20157;-64
2021/11/25 06:54:14;;;;;;;23.38;13.65;;;;;;;10.57;47.97;100895.75;4215831;28;20064;-60
2021/11/25 06:56:16;;;;;;;26.60;14.25;;;;;;;10.63;47.89;100911.31;4205250;28;20045;-60
2021/11/25 06:58:18;;;;;;;24.13;14.00;;;;;;;10.66;48.01;100908.59;4215321;28;20111;-60
2021/11/25 07:00:22;;;;;;;;;;;;;;;10.67;48.23;100916.44;4212277;28;20107;-60
2021/11/25 07:02:24;;;;;;;22.88;13.48;;;;;;;10.62;47.89;100909.59;4208651;28;19987;-60
2021/11/25 07:04:27;;;;;;;25.25;13.15;;;;;;;10.53;47.93;100901.13;4218571;28;20095;-60
2021/11/25 07:06:29;;;;;;;23.83;13.25;;;;;;;10.65;47.96;100931.41;4207556;28;20280;-60
2021/11/25 07:08:31;;;;;;;;;;;;;;;10.66;48.09;100945.44;4214516;28;20063;-60
2021/11/25 07:10:34;;;;;;;28.27;14.68;;;;;;;10.55;48.12;100933.47;4212663;28;19947;-60
2021/11/25 07:12:39;;;;;;;24.65;14.27;;;;;;;10.63;48.33;100948.13;4208512;28;20048;-60
2021/11/25 07:14:41;;;;;;;24.70;13.75;;;;;;;10.61;48.13;100952.56;4218254;28;20304;-61
2021/11/25 07:16:43;;;;;;;;;;;;;;;10.63;48.10;100959.53;4207884;28;20079;-60
2021/11/25 07:18:45;;;;;;;26.20;14.00;;;;;;;10.62;48.17;100964.81;4213000;28;19923;-60
2021/11/25 07:20:47;;;;;;;24.20;14.25;;;;;;;10.59;48.08;100965.78;4223884;28;20059;-60
2021/11/25 07:22:50;;;;;;;23.83;14.38;;;;;;;10.59;48.12;100967.56;4223005;28;20131;-60
2021/11/25 07:24:52;;;;;;;25.58;13.43;;;;;;;10.56;47.80;100968.53;4211962;28;20063;-60
2021/11/25 07:26:54;;;;;;;;;;;;;;;10.61;47.98;100973.63;4224176;28;20047;-60
2021/11/25 07:28:57;;;;;;;22.17;12.85;;;;;;;10.61;48.03;100969.25;4218758;28;19936;-61
2021/11/25 07:30:59;;;;;;;;;;;;;;;10.60;48.05;100970.16;4216799;28;20075;-60
2021/11/25 07:33:01;;;;;;;26.02;14.07;;;;;;;10.59;48.17;100968.41;4223868;28;20073;-60
2021/11/25 07:35:05;;;;;;;24.63;13.88;;;;;;;10.55;47.99;100966.81;4210874;28;20111;-60
2021/11/25 07:37:08;;;;;;;23.83;14.18;;;;;;;10.60;48.15;100977.19;4207171;28;20344;-60
2021/11/25 07:39:10;;;;;;;24.52;13.43;;;;;;;10.58;48.13;100979.84;4210846;28;20059;-60
2021/11/25 07:41:12;;;;;;;;;;;;;;;10.58;48.25;100981.63;4215376;28;20090;-60
2021/11/25 07:43:17;;;;;;;22.90;13.73;;;;;;;10.57;48.12;100986.03;4223694;28;19930;-60
2021/11/25 07:45:21;;;;;;;26.30;14.88;;;;;;;10.48;48.07;100971.38;4211165;28;20111;-60
2021/11/25 07:47:31;;;;;;;26.75;14.32;;;;;;;10.53;47.82;100974.75;4223372;28;20044;-60
2021/11/25 07:49:33;;;;;;;25.92;14.63;;;;;;;10.49;48.24;100972.25;4219240;28;20057;-60
2021/11/25 07:51:35;;;;;;;24.95;14.38;;;;;;;10.54;48.14;100986.97;4215157;28;20070;-61
2021/11/25 07:53:37;;;;;;;25.10;13.65;;;;;;;10.52;47.87;100988.81;4223457;28;20295;-60
2021/11/25 07:55:39;;;;;;;29.83;14.55;;;;;;;10.57;48.00;100996.56;4211075;28;20055;-60
2021/11/25 07:57:43;;;;;;;26.00;14.30;;;;;;;10.49;48.04;100993.28;4222837;28;20307;-60
2021/11/25 07:59:45;;;;;;;26.90;14.73;;;;;;;10.57;48.15;100993.06;4220342;28;20340;-61
2021/11/25 08:01:47;;;;;;;27.38;15.43;;;;;;;10.55;47.88;100996.59;4214072;28;20052;-61
2021/11/25 08:03:49;;;;;;;;;;;;;;;10.55;48.00;101001.00;4223785;28;20112;-61
2021/11/25 08:05:53;;;;;;;27.63;14.95;;;;;;;10.55;47.93;101003.63;4212309;28;20290;-60
2021/11/25 08:07:58;;;;;;;24.95;14.35;;;;;;;10.53;48.09;101014.19;4221559;28;20127;-60
2021/11/25 08:10:00;;;;;;;26.80;14.93;;;;;;;10.54;48.08;101023.78;4220971;28;20071;-60
2021/11/25 08:12:02;;;;;;;27.27;14.45;;;;;;;10.46;47.89;101010.03;4212766;28;20054;-60
2021/11/25 08:14:04;;;;;;;26.42;15.57;;;;;;;10.41;48.10;101001.41;4223053;28;20060;-60
2021/11/25 08:16:08;;;;;;;29.52;15.68;;;;;;;10.56;48.15;101018.50;4212989;28;20282;-60
2021/11/25 08:18:10;;;;;;;26.60;14.57;;;;;;;10.40;48.23;101002.31;4220988;28;20228;-60
2021/11/25 08:20:13;;;;;;;28.13;15.05;;;;;;;10.53;47.74;101029.97;4221449;28;20449;-61
2021/11/25 08:22:15;;;;;;;26.15;14.73;;;;;;;10.56;48.15;101039.53;4211687;28;20103;-61
2021/11/25 08:24:17;;;;;;;25.95;15.70;;;;;;;10.43;47.96;101020.63;4222837;28;20090;-61
2021/11/25 08:26:19;;;;;;;;;;;;;;;10.55;48.32;101038.66;4214199;28;20036;-62
2021/11/25 08:28:24;;;;;;;28.38;15.63;;;;;;;10.52;48.05;101036.16;4219432;28;19923;-60
2021/11/25 08:30:27;;;;;;;27.48;16.50;;;;;;;10.50;48.14;101034.47;4218919;28;20337;-60
2021/11/25 08:32:30;;;;;;;25.98;15.20;;;;;;;10.53;48.00;101039.63;4217349;28;20067;-60
2021/11/25 08:34:32;;;;;;;;;;;;;;;10.54;48.01;101047.47;4206438;28;20052;-60
2021/11/25 08:36:34;;;;;;;27.50;15.95;;;;;;;10.51;48.25;101044.06;4213763;28;20160;-60
2021/11/25 08:38:36;;;;;;;29.75;15.70;;;;;;;10.42;47.90;101028.56;4210489;28;20601;-60
2021/11/25 08:40:38;;;;;;;28.08;16.02;;;;;;;10.30;47.94;101004.31;4207356;28;20083;-61
2021/11/25 08:42:41;;;;;;;29.73;16.90;;;;;;;10.48;48.25;101037.13;4217106;28;20282;-61
2021/11/25 08:44:43;;;;;;;29.88;16.83;;;;;;;10.54;47.94;101041.34;4205833;28;20103;-60
2021/11/25 08:46:46;;;;;;;;;;;;;;;10.53;48.18;101043.13;4211086;28;20099;-60
2021/11/25 08:48:48;;;;;;;27.95;15.65;;;;;;;10.46;48.13;101032.81;4217016;28;19940;-61
2021/11/25 08:50:50;;;;;;;26.73;16.00;;;;;;;10.54;47.95;101041.34;4221162;28;20052;-61
2021/11/25 08:52:52;;;;;;;29.65;16.33;;;;;;;10.48;47.84;101031.00;4219031;28;20048;-61
2021/11/25 08:54:54;;;;;;;30.13;16.13;;;;;;;10.48;48.51;101031.00;4222603;28;20299;-61
2021/11/25 08:56:57;;;;;;;31.17;16.67;;;;;;;10.47;48.50;101029.28;4216683;28;20287;-61
2021/11/25 08:58:59;;;;;;;33.10;17.25;;;;;;;10.43;48.55;101030.31;4215316;28;20059;-61
2021/11/25 09:01:02;;;;;;;29.20;16.55;;;;;;;10.49;48.25;101040.63;4222058;28;20063;-61
2021/11/25 09:03:05;;;;;;;29.52;16.02;;;;;;;10.47;48.59;101035.41;4220209;28;20328;-61
2021/11/25 09:05:10;;;;;;;28.70;16.70;;;;;;;10.55;48.38;101045.69;4205618;28;20056;-61
2021/11/25 09:07:12;;;;;;;28.10;15.60;;;;;;;10.39;48.49;101013.75;4209905;28;20044;-61
2021/11/25 09:09:14;;;;;;;31.05;17.95;;;;;;;10.54;48.40;101033.47;4216834;28;20047;-62
2021/11/25 09:11:17;;;;;;;34.55;18.98;;;;;;;10.54;48.30;101028.19;4206284;28;20067;-61
2021/11/25 09:13:19;;;;;;;35.25;17.73;;;;;;;10.52;48.67;101028.25;4215923;28;20405;-68
2021/11/25 09:15:22;;;;;;;40.42;22.33;;;;;;;10.47;49.60;101013.50;4187563;28;20106;-67
2021/11/25 09:17:25;;;;;;;44.70;23.58;;;;;;;10.46;49.56;101015.28;4209047;28;20052;-63
2021/11/25 09:19:49;;;;;;;46.88;23.52;;;;;;;10.58;49.22;101029.81;4215099;28;20052;-63
2021/11/25 09:21:51;;;;;;;42.58;23.55;;;;;;;10.60;49.34;101029.78;4220395;28;20063;-62
2021/11/25 09:23:55;;;;;;;41.28;22.48;;;;;;;10.62;49.20;101030.59;4199503;28;20086;-64
2021/11/25 09:25:59;;;;;;;38.08;21.80;;;;;;;10.59;48.99;101021.03;4206032;28;20083;-67
2021/11/25 09:28:02;;;;;;;44.25;22.42;;;;;;;10.63;48.79;101027.94;4217281;28;20464;-61
2021/11/25 09:30:06;;;;;;;40.05;22.08;;;;;;;10.59;49.07;101014.91;4218573;28;20077;-63
2021/11/25 09:32:08;;;;;;;43.70;22.65;;;;;;;10.64;48.59;101018.25;4217497;28;20048;-62
2021/11/25 09:34:11;;;;;;;42.95;24.48;;;;;;;10.60;48.79;101009.59;4220292;28;20068;-67
2021/11/25 09:36:13;;;;;;;44.08;23.13;;;;;;;10.62;49.15;101010.41;4221500;28;20108;-61
2021/11/25 09:38:19;;;;;;;47.28;24.30;;;;;;;10.70;48.70;101024.19;4213326;28;20040;-64